createdAt,value
2023-04-17T00:22:10.054Z,20.19
2023-04-17T00:51:02.207Z,20.18
2023-04-17T01:19:59.391Z,20.15
2023-04-17T01:48:51.223Z,20.14
2023-04-17T02:17:51.579Z,20.12
2023-04-17T02:46:47.626Z,20.11
2023-04-17T03:15:45.010Z,20.1
2023-04-17T03:44:43.989Z,20.08
2023-04-17T04:13:45.965Z,20.37
2023-04-17T04:42:41.581Z,20.84
2023-04-17T05:11:42.187Z,20.88
2023-04-17T05:40:27.091Z,20.7
2023-04-17T06:09:05.102Z,20.62
2023-04-17T06:37:47.952Z,20.68
2023-04-17T07:06:30.839Z,20.75
2023-04-17T07:35:31.311Z,20.99
2023-04-17T08:04:26.987Z,20.9
2023-04-17T08:33:03.976Z,20.62
2023-04-17T08:36:40.086Z,20.29
2023-04-17T09:05:46.755Z,20.6
2023-04-17T09:34:26.878Z,20.71
2023-04-17T10:02:58.135Z,20.74
2023-04-17T10:31:33.926Z,20.76
2023-04-17T11:00:03.852Z,20.76
2023-04-17T11:28:49.972Z,20.75
2023-04-17T11:57:32.611Z,20.78
2023-04-17T12:26:14.917Z,20.77
2023-04-17T12:54:58.069Z,20.79
2023-04-17T13:23:35.966Z,20.79
2023-04-17T13:52:13.914Z,20.86
2023-04-17T14:20:54.269Z,20.94
2023-04-17T14:49:32.865Z,20.93
2023-04-17T15:18:19.006Z,20.92
2023-04-17T15:47:13.549Z,20.9
2023-04-17T16:15:59.261Z,20.88
2023-04-17T16:44:39.801Z,20.85
2023-04-17T17:13:23.839Z,20.84
2023-04-17T17:41:57.464Z,20.79
2023-04-17T18:10:41.182Z,20.78
2023-04-17T18:39:27.740Z,20.75
2023-04-17T19:08:14.692Z,20.72
2023-04-17T19:37:07.847Z,20.69
2023-04-17T20:06:01.958Z,20.67
2023-04-17T20:34:40.206Z,20.65
2023-04-17T21:03:32.235Z,20.64
2023-04-17T21:32:06.279Z,20.61
2023-04-17T22:01:00.157Z,20.6
2023-04-17T22:29:56.989Z,20.59
2023-04-17T22:58:52.068Z,20.57
2023-04-17T23:27:52.634Z,20.56
2023-04-17T23:56:39.160Z,20.52
